sensor_id;sensor_type;location;lat;lon;timestamp;pressure;altitude;pressure_sealevel;temperature;humidity
16544;BME280;8384;47.996;7.786;2022-11-09T00:00:44;98398.69;;;11.83;79.29
16544;BME280;8384;47.996;7.786;2022-11-09T00:03:09;98381.81;;;11.34;83.73
16544;BME280;8384;47.996;7.786;2022-11-09T00:05:35;98382.88;;;11.54;82.08
16544;BME280;8384;47.996;7.786;2022-11-09T00:08:00;98378.41;;;11.79;81.11
16544;BME280;8384;47.996;7.786;2022-11-09T00:10:26;98372.66;;;11.85;79.91
16544;BME280;8384;47.996;7.786;2022-11-09T00:12:51;98372.69;;;11.75;82.46
16544;BME280;8384;47.996;7.786;2022-11-09T00:15:16;98377.69;;;11.47;83.23
16544;BME280;8384;47.996;7.786;2022-11-09T00:17:42;98390.28;;;11.53;83.52
16544;BME280;8384;47.996;7.786;2022-11-09T00:20:07;98323.28;;;11.09;84.17
16544;BME280;8384;47.996;7.786;2022-11-09T00:22:33;98393.28;;;11.47;84.68
16544;BME280;8384;47.996;7.786;2022-11-09T00:24:58;98375.78;;;11.48;85.10
16544;BME280;8384;47.996;7.786;2022-11-09T00:27:23;98388.00;;;11.81;82.14
16544;BME280;8384;47.996;7.786;2022-11-09T00:29:49;98371.59;;;11.81;80.32
16544;BME280;8384;47.996;7.786;2022-11-09T00:32:14;98403.06;;;11.99;79.91
16544;BME280;8384;47.996;7.786;2022-11-09T00:34:39;98397.31;;;11.85;80.26
16544;BME280;8384;47.996;7.786;2022-11-09T00:37:04;98385.34;;;11.55;83.96
16544;BME280;8384;47.996;7.786;2022-11-09T00:39:30;98399.28;;;11.64;83.05
16544;BME280;8384;47.996;7.786;2022-11-09T00:41:55;98391.38;;;11.58;84.36
16544;BME280;8384;47.996;7.786;2022-11-09T00:44:20;98369.22;;;11.49;84.68
16544;BME280;8384;47.996;7.786;2022-11-09T00:46:45;98414.59;;;11.76;84.19
16544;BME280;8384;47.996;7.786;2022-11-09T00:49:11;98431.03;;;11.70;84.83
16544;BME280;8384;47.996;7.786;2022-11-09T00:51:36;98421.72;;;11.72;85.83
16544;BME280;8384;47.996;7.786;2022-11-09T00:54:01;98442.78;;;11.87;87.76
16544;BME280;8384;47.996;7.786;2022-11-09T00:56:27;98411.34;;;11.48;90.34
16544;BME280;8384;47.996;7.786;2022-11-09T00:58:53;98465.78;;;11.80;92.54
16544;BME280;8384;47.996;7.786;2022-11-09T01:01:20;98425.31;;;11.25;95.29
16544;BME280;8384;47.996;7.786;2022-11-09T01:03:45;98431.91;;;11.35;93.96
16544;BME280;8384;47.996;7.786;2022-11-09T01:06:14;98438.16;;;11.72;90.54
16544;BME280;8384;47.996;7.786;2022-11-09T01:08:40;98440.59;;;11.89;91.33
16544;BME280;8384;47.996;7.786;2022-11-09T01:11:07;98408.03;;;11.66;92.90
16544;BME280;8384;47.996;7.786;2022-11-09T01:13:33;98427.72;;;11.79;94.81
16544;BME280;8384;47.996;7.786;2022-11-09T01:15:58;98441.97;;;11.76;96.35
16544;BME280;8384;47.996;7.786;2022-11-09T01:18:23;98423.38;;;11.73;96.71
16544;BME280;8384;47.996;7.786;2022-11-09T01:20:49;98432.13;;;11.64;98.42
16544;BME280;8384;47.996;7.786;2022-11-09T01:23:16;98445.81;;;11.69;99.18
16544;BME280;8384;47.996;7.786;2022-11-09T01:25:42;98442.53;;;11.67;99.58
16544;BME280;8384;47.996;7.786;2022-11-09T01:28:09;98439.00;;;11.57;100.00
16544;BME280;8384;47.996;7.786;2022-11-09T01:30:36;98432.41;;;11.42;100.00
16544;BME280;8384;47.996;7.786;2022-11-09T01:33:03;98442.00;;;11.50;100.00
16544;BME280;8384;47.996;7.786;2022-11-09T01:35:29;98428.59;;;11.48;100.00
16544;BME280;8384;47.996;7.786;2022-11-09T01:37:56;98448.00;;;11.73;99.32
16544;BME280;8384;47.996;7.786;2022-11-09T01:40:21;98431.81;;;11.87;96.03
16544;BME280;8384;47.996;7.786;2022-11-09T01:42:47;98446.53;;;12.22;93.54
16544;BME280;8384;47.996;7.786;2022-11-09T01:47:50;98444.56;;;12.33;91.94
16544;BME280;8384;47.996;7.786;2022-11-09T01:50:22;98430.31;;;12.36;91.93
16544;BME280;8384;47.996;7.786;2022-11-09T01:52:51;98456.44;;;12.73;90.80
16544;BME280;8384;47.996;7.786;2022-11-09T01:55:20;98473.50;;;12.59;93.09
16544;BME280;8384;47.996;7.786;2022-11-09T01:57:56;98466.13;;;12.60;95.36
16544;BME280;8384;47.996;7.786;2022-11-09T02:00:23;98467.56;;;12.42;96.99
16544;BME280;8384;47.996;7.786;2022-11-09T02:02:53;98460.41;;;12.51;97.57
16544;BME280;8384;47.996;7.786;2022-11-09T02:05:23;98457.72;;;12.36;99.00
16544;BME280;8384;47.996;7.786;2022-11-09T02:07:49;98436.41;;;12.22;99.45
16544;BME280;8384;47.996;7.786;2022-11-09T02:10:25;98461.53;;;12.40;99.65
16544;BME280;8384;47.996;7.786;2022-11-09T02:12:53;98457.38;;;12.48;100.00
16544;BME280;8384;47.996;7.786;2022-11-09T02:15:20;98457.16;;;12.39;100.00
16544;BME280;8384;47.996;7.786;2022-11-09T02:17:49;98416.94;;;12.19;100.00
16544;BME280;8384;47.996;7.786;2022-11-09T02:20:16;98457.13;;;12.49;100.00
16544;BME280;8384;47.996;7.786;2022-11-09T02:22:42;98469.72;;;12.50;100.00
16544;BME280;8384;47.996;7.786;2022-11-09T02:25:08;98434.19;;;12.24;100.00
16544;BME280;8384;47.996;7.786;2022-11-09T02:27:34;98454.19;;;12.30;100.00
16544;BME280;8384;47.996;7.786;2022-11-09T02:30:01;98448.94;;;12.39;100.00
16544;BME280;8384;47.996;7.786;2022-11-09T02:32:28;98453.31;;;12.40;100.00
16544;BME280;8384;47.996;7.786;2022-11-09T02:34:55;98446.81;;;12.25;100.00
16544;BME280;8384;47.996;7.786;2022-11-09T02:37:34;98428.50;;;12.05;100.00
16544;BME280;8384;47.996;7.786;2022-11-09T02:40:05;98453.06;;;12.31;100.00
16544;BME280;8384;47.996;7.786;2022-11-09T02:42:31;98433.38;;;12.19;100.00
16544;BME280;8384;47.996;7.786;2022-11-09T02:44:58;98435.84;;;12.20;100.00
16544;BME280;8384;47.996;7.786;2022-11-09T02:47:24;98452.84;;;12.22;100.00
16544;BME280;8384;47.996;7.786;2022-11-09T02:49:49;98463.47;;;12.34;100.00
16544;BME280;8384;47.996;7.786;2022-11-09T02:52:16;98470.53;;;12.51;100.00
16544;BME280;8384;47.996;7.786;2022-11-09T02:54:41;98445.41;;;12.33;100.00
16544;BME280;8384;47.996;7.786;2022-11-09T02:57:07;98446.19;;;12.39;100.00
16544;BME280;8384;47.996;7.786;2022-11-09T02:59:32;98454.41;;;12.39;100.00
16544;BME280;8384;47.996;7.786;2022-11-09T03:01:57;98470.53;;;12.45;100.00
16544;BME280;8384;47.996;7.786;2022-11-09T03:04:23;98482.94;;;12.33;100.00
16544;BME280;8384;47.996;7.786;2022-11-09T03:06:48;98467.59;;;12.32;100.00
16544;BME280;8384;47.996;7.786;2022-11-09T03:09:13;98466.78;;;12.26;100.00
16544;BME280;8384;47.996;7.786;2022-11-09T03:11:41;98487.03;;;12.40;100.00
16544;BME280;8384;47.996;7.786;2022-11-09T03:14:07;98486.97;;;12.51;100.00
16544;BME280;8384;47.996;7.786;2022-11-09T03:16:34;98469.22;;;12.33;100.00
16544;BME280;8384;47.996;7.786;2022-11-09T03:19:00;98452.28;;;12.25;100.00
16544;BME280;8384;47.996;7.786;2022-11-09T03:21:25;98463.25;;;12.20;100.00
16544;BME280;8384;47.996;7.786;2022-11-09T03:23:51;98481.50;;;12.45;100.00
16544;BME280;8384;47.996;7.786;2022-11-09T03:26:18;98490.59;;;12.41;100.00
16544;BME280;8384;47.996;7.786;2022-11-09T03:28:43;98475.53;;;12.38;100.00
16544;BME280;8384;47.996;7.786;2022-11-09T03:31:08;98457.78;;;12.25;100.00
16544;BME280;8384;47.996;7.786;2022-11-09T03:33:34;98487.84;;;12.41;100.00
16544;BME280;8384;47.996;7.786;2022-11-09T03:35:59;98484.03;;;12.32;100.00
16544;BME280;8384;47.996;7.786;2022-11-09T03:38:25;98473.91;;;12.32;100.00
16544;BME280;8384;47.996;7.786;2022-11-09T03:40:50;98478.28;;;12.28;100.00
16544;BME280;8384;47.996;7.786;2022-11-09T03:43:15;98492.53;;;12.35;100.00
16544;BME280;8384;47.996;7.786;2022-11-09T03:45:41;98470.88;;;12.34;100.00
16544;BME280;8384;47.996;7.786;2022-11-09T03:48:06;98465.66;;;12.37;100.00
16544;BME280;8384;47.996;7.786;2022-11-09T03:50:32;98482.34;;;12.51;100.00
16544;BME280;8384;47.996;7.786;2022-11-09T03:52:59;98452.72;;;12.53;100.00
16544;BME280;8384;47.996;7.786;2022-11-09T03:55:25;98451.63;;;12.49;100.00
16544;BME280;8384;47.996;7.786;2022-11-09T03:57:50;98467.22;;;12.54;100.00
16544;BME280;8384;47.996;7.786;2022-11-09T04:00:18;98472.44;;;12.55;100.00
16544;BME280;8384;47.996;7.786;2022-11-09T04:02:44;98456.34;;;12.38;100.00
16544;BME280;8384;47.996;7.786;2022-11-09T04:05:09;98444.00;;;12.36;100.00
16544;BME280;8384;47.996;7.786;2022-11-09T04:07:36;98445.09;;;12.35;100.00
16544;BME280;8384;47.996;7.786;2022-11-09T04:10:01;98473.81;;;12.58;100.00
16544;BME280;8384;47.996;7.786;2022-11-09T04:12:26;98477.66;;;12.47;100.00
16544;BME280;8384;47.996;7.786;2022-11-09T04:14:52;98468.66;;;12.41;100.00
16544;BME280;8384;47.996;7.786;2022-11-09T04:17:17;98447.38;;;12.22;100.00
16544;BME280;8384;47.996;7.786;2022-11-09T04:19:42;98469.72;;;12.55;100.00
16544;BME280;8384;47.996;7.786;2022-11-09T04:22:07;98444.78;;;12.47;100.00
16544;BME280;8384;47.996;7.786;2022-11-09T04:24:33;98467.78;;;12.56;100.00
16544;BME280;8384;47.996;7.786;2022-11-09T04:26:58;98459.56;;;12.51;100.00
16544;BME280;8384;47.996;7.786;2022-11-09T04:29:23;98458.44;;;12.57;100.00
16544;BME280;8384;47.996;7.786;2022-11-09T04:31:49;98458.75;;;12.50;100.00
16544;BME280;8384;47.996;7.786;2022-11-09T04:34:15;98441.25;;;12.36;100.00
16544;BME280;8384;47.996;7.786;2022-11-09T04:36:41;98458.44;;;12.57;100.00
16544;BME280;8384;47.996;7.786;2022-11-09T04:39:07;98455.41;;;12.58;100.00
16544;BME280;8384;47.996;7.786;2022-11-09T04:41:32;98431.69;;;12.38;100.00
16544;BME280;8384;47.996;7.786;2022-11-09T04:43:57;98451.00;;;12.63;100.00
16544;BME280;8384;47.996;7.786;2022-11-09T04:46:23;98439.56;;;12.55;100.00
16544;BME280;8384;47.996;7.786;2022-11-09T04:48:48;98426.75;;;12.40;100.00
16544;BME280;8384;47.996;7.786;2022-11-09T04:51:13;98421.28;;;12.30;100.00
16544;BME280;8384;47.996;7.786;2022-11-09T04:53:39;98446.69;;;12.51;100.00
16544;BME280;8384;47.996;7.786;2022-11-09T04:56:05;98446.47;;;12.42;100.00
16544;BME280;8384;47.996;7.786;2022-11-09T04:58:30;98443.47;;;12.34;100.00
16544;BME280;8384;47.996;7.786;2022-11-09T05:01:04;98445.38;;;12.38;100.00
16544;BME280;8384;47.996;7.786;2022-11-09T05:03:29;98440.78;;;12.23;100.00
16544;BME280;8384;47.996;7.786;2022-11-09T05:05:55;98433.91;;;12.26;100.00
16544;BME280;8384;47.996;7.786;2022-11-09T05:08:20;98447.63;;;12.26;100.00
16544;BME280;8384;47.996;7.786;2022-11-09T05:10:45;98435.53;;;12.32;100.00
16544;BME280;8384;47.996;7.786;2022-11-09T05:13:11;98426.75;;;12.40;100.00
16544;BME280;8384;47.996;7.786;2022-11-09T05:15:37;98435.19;;;12.49;100.00
16544;BME280;8384;47.996;7.786;2022-11-09T05:18:03;98443.72;;;12.42;100.00
16544;BME280;8384;47.996;7.786;2022-11-09T05:20:28;98438.03;;;12.28;100.00
16544;BME280;8384;47.996;7.786;2022-11-09T05:22:56;98437.19;;;12.28;100.00
16544;BME280;8384;47.996;7.786;2022-11-09T05:25:40;98449.56;;;12.20;100.00
16544;BME280;8384;47.996;7.786;2022-11-09T05:28:06;98428.19;;;12.12;100.00
16544;BME280;8384;47.996;7.786;2022-11-09T05:30:31;98446.50;;;12.27;100.00
16544;BME280;8384;47.996;7.786;2022-11-09T05:32:57;98446.75;;;12.36;100.00
16544;BME280;8384;47.996;7.786;2022-11-09T05:35:22;98457.97;;;12.44;100.00
16544;BME280;8384;47.996;7.786;2022-11-09T05:37:48;98462.38;;;12.40;100.00
16544;BME280;8384;47.996;7.786;2022-11-09T05:40:15;98470.31;;;12.42;100.00
16544;BME280;8384;47.996;7.786;2022-11-09T05:42:41;98475.28;;;12.29;100.00
16544;BME280;8384;47.996;7.786;2022-11-09T05:45:08;98481.03;;;12.28;100.00
16544;BME280;8384;47.996;7.786;2022-11-09T05:47:38;98474.69;;;12.38;100.00
16544;BME280;8384;47.996;7.786;2022-11-09T05:50:05;98451.97;;;12.32;100.00
16544;BME280;8384;47.996;7.786;2022-11-09T05:52:31;98461.81;;;12.38;100.00
16544;BME280;8384;47.996;7.786;2022-11-09T05:54:56;98479.38;;;12.37;100.00
16544;BME280;8384;47.996;7.786;2022-11-09T05:57:22;98493.59;;;12.44;100.00
16544;BME280;8384;47.996;7.786;2022-11-09T05:59:47;98494.41;;;12.50;100.00
16544;BME280;8384;47.996;7.786;2022-11-09T06:02:13;98456.59;;;12.42;100.00
16544;BME280;8384;47.996;7.786;2022-11-09T06:04:38;98495.44;;;12.59;100.00
16544;BME280;8384;47.996;7.786;2022-11-09T06:07:04;98502.84;;;12.64;100.00
16544;BME280;8384;47.996;7.786;2022-11-09T06:09:29;98497.84;;;12.71;100.00
16544;BME280;8384;47.996;7.786;2022-11-09T06:11:55;98499.78;;;12.76;100.00
16544;BME280;8384;47.996;7.786;2022-11-09T06:14:20;98506.88;;;12.82;100.00
16544;BME280;8384;47.996;7.786;2022-11-09T06:16:46;98504.91;;;12.88;97.74
16544;BME280;8384;47.996;7.786;2022-11-09T06:19:11;98491.75;;;12.90;97.08
16544;BME280;8384;47.996;7.786;2022-11-09T06:21:37;98511.75;;;12.90;97.30
16544;BME280;8384;47.996;7.786;2022-11-09T06:24:02;98520.75;;;13.01;96.03
16544;BME280;8384;47.996;7.786;2022-11-09T06:26:28;98506.78;;;12.98;96.08
16544;BME280;8384;47.996;7.786;2022-11-09T06:28:53;98516.28;;;13.16;94.54
16544;BME280;8384;47.996;7.786;2022-11-09T06:31:18;98522.59;;;13.11;93.55
16544;BME280;8384;47.996;7.786;2022-11-09T06:33:44;98524.97;;;13.28;94.17
16544;BME280;8384;47.996;7.786;2022-11-09T06:36:10;98521.19;;;13.24;93.15
16544;BME280;8384;47.996;7.786;2022-11-09T06:38:35;98524.97;;;13.28;92.63
16544;BME280;8384;47.996;7.786;2022-11-09T06:41:01;98544.69;;;13.41;91.71
16544;BME280;8384;47.996;7.786;2022-11-09T06:43:26;98533.41;;;13.42;91.66
16544;BME280;8384;47.996;7.786;2022-11-09T06:45:52;98541.88;;;13.51;91.33
16544;BME280;8384;47.996;7.786;2022-11-09T06:48:18;98519.47;;;13.28;91.70
16544;BME280;8384;47.996;7.786;2022-11-09T06:50:43;98535.34;;;13.42;90.27
16544;BME280;8384;47.996;7.786;2022-11-09T06:53:11;98547.59;;;13.60;90.54
16544;BME280;8384;47.996;7.786;2022-11-09T06:55:38;98539.91;;;13.57;89.42
16544;BME280;8384;47.996;7.786;2022-11-09T06:58:13;98547.88;;;13.58;90.58
16544;BME280;8384;47.996;7.786;2022-11-09T07:00:40;98565.13;;;13.64;89.27
16544;BME280;8384;47.996;7.786;2022-11-09T07:03:06;98560.69;;;13.68;88.77
16544;BME280;8384;47.996;7.786;2022-11-09T07:05:32;98553.88;;;13.60;88.90
16544;BME280;8384;47.996;7.786;2022-11-09T07:07:57;98551.38;;;13.64;87.95
16544;BME280;8384;47.996;7.786;2022-11-09T07:10:23;98568.94;;;13.68;89.32
16544;BME280;8384;47.996;7.786;2022-11-09T07:12:48;98580.75;;;13.69;90.57
16544;BME280;8384;47.996;7.786;2022-11-09T07:15:14;98584.97;;;13.56;91.36
16544;BME280;8384;47.996;7.786;2022-11-09T07:17:39;98583.56;;;13.58;89.90
16544;BME280;8384;47.996;7.786;2022-11-09T07:20:09;98576.09;;;13.64;90.93
16544;BME280;8384;47.996;7.786;2022-11-09T07:22:34;98556.47;;;13.46;89.02
16544;BME280;8384;47.996;7.786;2022-11-09T07:25:05;98596.16;;;13.64;89.19
16544;BME280;8384;47.996;7.786;2022-11-09T07:27:31;98604.19;;;13.56;91.66
16544;BME280;8384;47.996;7.786;2022-11-09T07:29:56;98581.72;;;13.48;91.15
16544;BME280;8384;47.996;7.786;2022-11-09T07:32:22;98593.75;;;13.58;91.26
16544;BME280;8384;47.996;7.786;2022-11-09T07:34:47;98598.69;;;13.56;93.07
16544;BME280;8384;47.996;7.786;2022-11-09T07:37:12;98600.38;;;13.52;92.61
16544;BME280;8384;47.996;7.786;2022-11-09T07:39:38;98566.97;;;13.29;93.77
16544;BME280;8384;47.996;7.786;2022-11-09T07:42:03;98569.94;;;13.38;92.86
16544;BME280;8384;47.996;7.786;2022-11-09T07:44:28;98566.16;;;13.28;92.21
16544;BME280;8384;47.996;7.786;2022-11-09T07:46:54;98572.97;;;13.41;93.64
16544;BME280;8384;47.996;7.786;2022-11-09T07:49:19;98558.78;;;13.24;92.71
16544;BME280;8384;47.996;7.786;2022-11-09T07:51:44;98591.28;;;13.51;92.41
16544;BME280;8384;47.996;7.786;2022-11-09T07:54:09;98580.00;;;13.58;92.26
16544;BME280;8384;47.996;7.786;2022-11-09T07:56:36;98558.09;;;13.47;91.98
16544;BME280;8384;47.996;7.786;2022-11-09T07:59:01;98575.88;;;13.60;91.69
16544;BME280;8384;47.996;7.786;2022-11-09T08:01:27;98574.75;;;13.61;90.78
16544;BME280;8384;47.996;7.786;2022-11-09T08:03:52;98563.44;;;13.68;92.06
16544;BME280;8384;47.996;7.786;2022-11-09T08:06:18;98584.06;;;14.00;89.67
16544;BME280;8384;47.996;7.786;2022-11-09T08:08:43;98583.03;;;13.91;89.10
16544;BME280;8384;47.996;7.786;2022-11-09T08:11:09;98586.00;;;14.00;88.17
16544;BME280;8384;47.996;7.786;2022-11-09T08:13:34;98581.94;;;13.92;87.87
16544;BME280;8384;47.996;7.786;2022-11-09T08:16:00;98587.94;;;13.99;88.56
16544;BME280;8384;47.996;7.786;2022-11-09T08:18:27;98596.25;;;14.23;85.67
16544;BME280;8384;47.996;7.786;2022-11-09T08:20:52;98592.28;;;14.35;86.39
16544;BME280;8384;47.996;7.786;2022-11-09T08:23:18;98594.22;;;14.34;85.40
16544;BME280;8384;47.996;7.786;2022-11-09T08:25:46;98592.72;;;14.47;82.77
16544;BME280;8384;47.996;7.786;2022-11-09T08:28:12;98586.91;;;14.49;83.71
16544;BME280;8384;47.996;7.786;2022-11-09T08:30:39;98607.66;;;14.65;83.75
16544;BME280;8384;47.996;7.786;2022-11-09T08:33:04;98596.13;;;14.63;82.22
16544;BME280;8384;47.996;7.786;2022-11-09T08:35:29;98588.00;;;14.77;81.84
16544;BME280;8384;47.996;7.786;2022-11-09T08:37:55;98571.19;;;14.79;81.18
16544;BME280;8384;47.996;7.786;2022-11-09T08:40:25;98557.59;;;14.88;80.49
16544;BME280;8384;47.996;7.786;2022-11-09T08:42:51;98585.91;;;15.12;79.38
16544;BME280;8384;47.996;7.786;2022-11-09T08:45:17;98583.03;;;15.23;79.08
16544;BME280;8384;47.996;7.786;2022-11-09T08:47:43;98560.22;;;15.22;79.11
16544;BME280;8384;47.996;7.786;2022-11-09T08:50:10;98589.75;;;15.36;79.41
16544;BME280;8384;47.996;7.786;2022-11-09T08:52:36;98587.88;;;15.31;78.78
16544;BME280;8384;47.996;7.786;2022-11-09T08:55:01;98583.25;;;15.45;78.98
16544;BME280;8384;47.996;7.786;2022-11-09T08:57:27;98590.72;;;15.45;77.81
16544;BME280;8384;47.996;7.786;2022-11-09T08:59:52;98589.88;;;15.44;76.42
16544;BME280;8384;47.996;7.786;2022-11-09T09:02:18;98572.34;;;15.21;77.80
16544;BME280;8384;47.996;7.786;2022-11-09T09:04:43;98601.44;;;15.47;77.95
16544;BME280;8384;47.996;7.786;2022-11-09T09:07:09;98588.09;;;15.35;77.89
16544;BME280;8384;47.996;7.786;2022-11-09T09:09:34;98589.38;;;15.62;78.33
16544;BME280;8384;47.996;7.786;2022-11-09T09:12:02;98586.53;;;15.67;77.76
16544;BME280;8384;47.996;7.786;2022-11-09T09:14:28;98576.84;;;15.88;76.70
16544;BME280;8384;47.996;7.786;2022-11-09T09:16:53;98582.16;;;16.18;75.81
16544;BME280;8384;47.996;7.786;2022-11-09T09:19:18;98577.59;;;16.41;75.12
16544;BME280;8384;47.996;7.786;2022-11-09T09:21:43;98605.72;;;16.10;73.70
16544;BME280;8384;47.996;7.786;2022-11-09T09:24:09;98605.47;;;15.93;73.26
16544;BME280;8384;47.996;7.786;2022-11-09T09:26:34;98609.06;;;16.07;75.13
16544;BME280;8384;47.996;7.786;2022-11-09T09:28:59;98596.94;;;16.08;74.15
16544;BME280;8384;47.996;7.786;2022-11-09T09:31:25;98584.88;;;16.04;74.43
16544;BME280;8384;47.996;7.786;2022-11-09T09:33:51;98609.19;;;16.02;74.28
16544;BME280;8384;47.996;7.786;2022-11-09T09:36:18;98588.38;;;16.10;72.78
16544;BME280;8384;47.996;7.786;2022-11-09T09:38:44;98602.97;;;16.10;72.28
16544;BME280;8384;47.996;7.786;2022-11-09T09:41:21;98602.38;;;16.13;72.95
16544;BME280;8384;47.996;7.786;2022-11-09T09:43:48;98575.97;;;15.74;73.10
16544;BME280;8384;47.996;7.786;2022-11-09T09:48:45;98625.03;;;15.91;75.04
16544;BME280;8384;47.996;7.786;2022-11-09T09:51:18;98621.41;;;15.96;72.73
16544;BME280;8384;47.996;7.786;2022-11-09T09:53:55;98609.41;;;15.86;73.60
16544;BME280;8384;47.996;7.786;2022-11-09T09:56:30;98627.72;;;15.96;73.29
16544;BME280;8384;47.996;7.786;2022-11-09T09:59:05;98616.41;;;15.79;74.22
16544;BME280;8384;47.996;7.786;2022-11-09T10:01:38;98618.56;;;15.63;73.79
16544;BME280;8384;47.996;7.786;2022-11-09T10:04:15;98640.22;;;15.69;74.32
16544;BME280;8384;47.996;7.786;2022-11-09T10:07:10;98642.16;;;15.50;73.83
16544;BME280;8384;47.996;7.786;2022-11-09T10:10:00;98647.88;;;15.53;73.47
16544;BME280;8384;47.996;7.786;2022-11-09T10:21:52;98641.84;;;15.51;74.65
16544;BME280;8384;47.996;7.786;2022-11-09T10:24:27;98642.03;;;15.60;74.47
16544;BME280;8384;47.996;7.786;2022-11-09T10:26:59;98614.53;;;15.36;76.73
16544;BME280;8384;47.996;7.786;2022-11-09T10:29:39;98636.03;;;15.34;77.29
16544;BME280;8384;47.996;7.786;2022-11-09T10:32:16;98633.06;;;15.30;76.69
16544;BME280;8384;47.996;7.786;2022-11-09T10:37:18;98632.22;;;15.29;78.93
16544;BME280;8384;47.996;7.786;2022-11-09T10:42:36;98619.03;;;15.07;81.26
16544;BME280;8384;47.996;7.786;2022-11-09T10:47:50;98621.06;;;14.96;85.46
16544;BME280;8384;47.996;7.786;2022-11-09T10:50:40;98618.41;;;15.10;82.75
16544;BME280;8384;47.996;7.786;2022-11-09T10:53:20;98612.00;;;14.96;85.18
16544;BME280;8384;47.996;7.786;2022-11-09T10:58:39;98618.78;;;15.04;84.77
16544;BME280;8384;47.996;7.786;2022-11-09T11:01:12;98624.28;;;15.04;84.70
16544;BME280;8384;47.996;7.786;2022-11-09T11:03:38;98616.19;;;14.93;86.77
16544;BME280;8384;47.996;7.786;2022-11-09T11:06:05;98616.28;;;15.07;85.52
16544;BME280;8384;47.996;7.786;2022-11-09T11:08:33;98613.53;;;14.83;87.87
16544;BME280;8384;47.996;7.786;2022-11-09T11:13:43;98607.03;;;14.98;87.34
16544;BME280;8384;47.996;7.786;2022-11-09T11:16:13;98603.25;;;14.69;87.85
16544;BME280;8384;47.996;7.786;2022-11-09T11:18:44;98605.31;;;14.78;88.57
16544;BME280;8384;47.996;7.786;2022-11-09T11:21:16;98576.91;;;14.58;88.09
16544;BME280;8384;47.996;7.786;2022-11-09T11:23:41;98602.94;;;14.66;87.73
16544;BME280;8384;47.996;7.786;2022-11-09T11:26:26;98588.19;;;14.86;86.54
16544;BME280;8384;47.996;7.786;2022-11-09T11:28:59;98598.31;;;14.91;87.70
16544;BME280;8384;47.996;7.786;2022-11-09T11:31:26;98580.19;;;14.84;87.84
16544;BME280;8384;47.996;7.786;2022-11-09T11:33:51;98593.91;;;14.90;87.64
16544;BME280;8384;47.996;7.786;2022-11-09T11:36:35;98579.72;;;14.82;86.36
16544;BME280;8384;47.996;7.786;2022-11-09T11:39:12;98591.75;;;14.87;85.83
16544;BME280;8384;47.996;7.786;2022-11-09T11:48:15;98595.78;;;14.70;88.75
16544;BME280;8384;47.996;7.786;2022-11-09T11:50:19;98598.03;;;14.63;91.14
16544;BME280;8384;47.996;7.786;2022-11-09T11:56:28;98580.28;;;14.79;89.16
16544;BME280;8384;47.996;7.786;2022-11-09T12:04:13;98583.84;;;14.80;90.04
16544;BME280;8384;47.996;7.786;2022-11-09T12:14:31;98580.41;;;14.93;89.82
16544;BME280;8384;47.996;7.786;2022-11-09T12:17:24;98586.72;;;14.94;89.97
16544;BME280;8384;47.996;7.786;2022-11-09T12:22:43;98591.81;;;14.81;91.22
16544;BME280;8384;47.996;7.786;2022-11-09T12:25:26;98595.03;;;14.89;92.14
16544;BME280;8384;47.996;7.786;2022-11-09T12:28:04;98599.47;;;14.84;93.40
16544;BME280;8384;47.996;7.786;2022-11-09T12:30:43;98598.84;;;14.68;94.35
16544;BME280;8384;47.996;7.786;2022-11-09T12:33:17;98603.97;;;14.46;97.09
16544;BME280;8384;47.996;7.786;2022-11-09T12:35:54;98598.03;;;14.38;100.00
16544;BME280;8384;47.996;7.786;2022-11-09T12:38:27;98595.91;;;14.30;100.00
16544;BME280;8384;47.996;7.786;2022-11-09T12:40:56;98588.00;;;14.23;100.00
16544;BME280;8384;47.996;7.786;2022-11-09T12:46:18;98576.91;;;13.70;100.00
16544;BME280;8384;47.996;7.786;2022-11-09T12:48:47;98608.19;;;13.74;100.00
16544;BME280;8384;47.996;7.786;2022-11-09T12:51:13;98612.44;;;13.56;100.00
16544;BME280;8384;47.996;7.786;2022-11-09T12:53:40;98607.63;;;13.27;100.00
16544;BME280;8384;47.996;7.786;2022-11-09T12:58:38;98618.66;;;13.11;100.00
16544;BME280;8384;47.996;7.786;2022-11-09T13:01:06;98596.44;;;13.08;100.00
16544;BME280;8384;47.996;7.786;2022-11-09T13:03:37;98612.34;;;13.11;100.00
16544;BME280;8384;47.996;7.786;2022-11-09T13:06:13;98612.03;;;13.23;100.00
16544;BME280;8384;47.996;7.786;2022-11-09T13:08:44;98583.91;;;12.96;100.00
16544;BME280;8384;47.996;7.786;2022-11-09T13:11:41;98615.31;;;13.25;100.00
16544;BME280;8384;47.996;7.786;2022-11-09T13:19:52;98610.22;;;12.97;100.00
16544;BME280;8384;47.996;7.786;2022-11-09T13:30:01;98609.06;;;13.14;100.00
16544;BME280;8384;47.996;7.786;2022-11-09T13:32:31;98628.84;;;13.05;100.00
16544;BME280;8384;47.996;7.786;2022-11-09T13:34:59;98640.41;;;12.92;100.00
16544;BME280;8384;47.996;7.786;2022-11-09T13:46:01;98653.31;;;12.86;100.00
16544;BME280;8384;47.996;7.786;2022-11-09T13:51:37;98645.66;;;12.83;100.00
16544;BME280;8384;47.996;7.786;2022-11-09T13:59:17;98627.03;;;12.70;100.00
16544;BME280;8384;47.996;7.786;2022-11-09T14:01:51;98659.31;;;13.04;100.00
16544;BME280;8384;47.996;7.786;2022-11-09T14:04:38;98654.16;;;12.87;100.00
16544;BME280;8384;47.996;7.786;2022-11-09T14:07:06;98660.97;;;12.89;100.00
16544;BME280;8384;47.996;7.786;2022-11-09T14:12:55;98666.53;;;12.74;100.00
16544;BME280;8384;47.996;7.786;2022-11-09T14:18:11;98686.31;;;12.55;100.00
16544;BME280;8384;47.996;7.786;2022-11-09T14:23:28;98693.44;;;12.56;100.00
16544;BME280;8384;47.996;7.786;2022-11-09T14:25:55;98663.28;;;12.41;100.00
16544;BME280;8384;47.996;7.786;2022-11-09T14:28:25;98699.72;;;12.67;100.00
16544;BME280;8384;47.996;7.786;2022-11-09T14:30:51;98693.41;;;12.62;100.00
16544;BME280;8384;47.996;7.786;2022-11-09T14:35:50;98687.41;;;12.54;100.00
16544;BME280;8384;47.996;7.786;2022-11-09T14:38:21;98700.53;;;12.63;100.00
16544;BME280;8384;47.996;7.786;2022-11-09T14:40:48;98708.75;;;12.68;100.00
16544;BME280;8384;47.996;7.786;2022-11-09T14:43:24;98709.03;;;12.45;100.00
16544;BME280;8384;47.996;7.786;2022-11-09T14:46:00;98681.09;;;12.43;100.00
16544;BME280;8384;47.996;7.786;2022-11-09T14:48:27;98712.59;;;12.62;100.00
16544;BME280;8384;47.996;7.786;2022-11-09T14:50:55;98693.44;;;12.51;100.00